sensor_id;sensor_type;location;lat;lon;timestamp;P1;durP1;ratioP1;P2;durP2;ratioP2
76127;SDS011;64873;50.102;14.434;2023-02-10T00:01:03;53.90;;;24.00;;
76127;SDS011;64873;50.102;14.434;2023-02-10T00:03:33;51.13;;;23.45;;
76127;SDS011;64873;50.102;14.434;2023-02-10T00:05:59;52.78;;;21.85;;
76127;SDS011;64873;50.102;14.434;2023-02-10T00:08:25;47.38;;;21.85;;
76127;SDS011;64873;50.102;14.434;2023-02-10T00:10:51;48.50;;;20.83;;
76127;SDS011;64873;50.102;14.434;2023-02-10T00:13:16;48.22;;;22.42;;
76127;SDS011;64873;50.102;14.434;2023-02-10T00:15:42;54.90;;;22.42;;
76127;SDS011;64873;50.102;14.434;2023-02-10T00:18:09;53.35;;;23.38;;
76127;SDS011;64873;50.102;14.434;2023-02-10T00:20:34;48.17;;;22.17;;
76127;SDS011;64873;50.102;14.434;2023-02-10T00:22:59;54.92;;;24.35;;
76127;SDS011;64873;50.102;14.434;2023-02-10T00:25:25;52.42;;;22.15;;
76127;SDS011;64873;50.102;14.434;2023-02-10T00:27:50;53.00;;;22.48;;
76127;SDS011;64873;50.102;14.434;2023-02-10T00:30:16;51.75;;;22.15;;
76127;SDS011;64873;50.102;14.434;2023-02-10T00:32:41;55.85;;;23.83;;
76127;SDS011;64873;50.102;14.434;2023-02-10T00:35:07;54.28;;;24.17;;
76127;SDS011;64873;50.102;14.434;2023-02-10T00:37:33;54.35;;;23.88;;
76127;SDS011;64873;50.102;14.434;2023-02-10T00:39:58;56.72;;;23.70;;
76127;SDS011;64873;50.102;14.434;2023-02-10T00:42:24;50.78;;;22.40;;
76127;SDS011;64873;50.102;14.434;2023-02-10T00:44:49;54.45;;;23.63;;
76127;SDS011;64873;50.102;14.434;2023-02-10T00:47:15;54.10;;;23.50;;
76127;SDS011;64873;50.102;14.434;2023-02-10T00:49:41;51.15;;;22.23;;
76127;SDS011;64873;50.102;14.434;2023-02-10T00:52:06;47.47;;;22.15;;
76127;SDS011;64873;50.102;14.434;2023-02-10T00:54:32;55.72;;;23.45;;
76127;SDS011;64873;50.102;14.434;2023-02-10T00:56:57;45.92;;;22.13;;
76127;SDS011;64873;50.102;14.434;2023-02-10T00:59:23;51.10;;;22.10;;
76127;SDS011;64873;50.102;14.434;2023-02-10T01:01:48;51.95;;;22.80;;
76127;SDS011;64873;50.102;14.434;2023-02-10T01:04:13;57.50;;;24.83;;
76127;SDS011;64873;50.102;14.434;2023-02-10T01:06:39;46.70;;;22.02;;
76127;SDS011;64873;50.102;14.434;2023-02-10T01:09:04;53.10;;;23.73;;
76127;SDS011;64873;50.102;14.434;2023-02-10T01:11:30;52.47;;;23.20;;
76127;SDS011;64873;50.102;14.434;2023-02-10T01:13:55;57.20;;;24.30;;
76127;SDS011;64873;50.102;14.434;2023-02-10T01:16:21;58.58;;;24.98;;
76127;SDS011;64873;50.102;14.434;2023-02-10T01:18:47;59.10;;;25.10;;
76127;SDS011;64873;50.102;14.434;2023-02-10T01:21:14;55.03;;;25.05;;
76127;SDS011;64873;50.102;14.434;2023-02-10T01:23:42;57.28;;;24.88;;
76127;SDS011;64873;50.102;14.434;2023-02-10T01:26:08;58.50;;;26.02;;
76127;SDS011;64873;50.102;14.434;2023-02-10T01:28:38;59.38;;;24.77;;
76127;SDS011;64873;50.102;14.434;2023-02-10T01:31:05;52.47;;;25.30;;
76127;SDS011;64873;50.102;14.434;2023-02-10T01:33:35;59.83;;;27.15;;
76127;SDS011;64873;50.102;14.434;2023-02-10T01:36:20;52.50;;;26.00;;
76127;SDS011;64873;50.102;14.434;2023-02-10T01:38:47;56.60;;;25.98;;
76127;SDS011;64873;50.102;14.434;2023-02-10T01:41:14;56.22;;;25.05;;
76127;SDS011;64873;50.102;14.434;2023-02-10T01:44:00;53.92;;;24.85;;
76127;SDS011;64873;50.102;14.434;2023-02-10T01:46:29;61.17;;;26.85;;
76127;SDS011;64873;50.102;14.434;2023-02-10T01:49:04;56.95;;;26.60;;
76127;SDS011;64873;50.102;14.434;2023-02-10T01:51:41;57.80;;;27.55;;
76127;SDS011;64873;50.102;14.434;2023-02-10T01:54:22;56.30;;;25.95;;
76127;SDS011;64873;50.102;14.434;2023-02-10T01:57:02;56.70;;;26.15;;
76127;SDS011;64873;50.102;14.434;2023-02-10T01:59:30;57.45;;;27.00;;
76127;SDS011;64873;50.102;14.434;2023-02-10T02:01:58;59.00;;;26.05;;
76127;SDS011;64873;50.102;14.434;2023-02-10T02:04:31;59.50;;;24.75;;
76127;SDS011;64873;50.102;14.434;2023-02-10T02:07:18;56.80;;;25.77;;
76127;SDS011;64873;50.102;14.434;2023-02-10T02:09:47;59.92;;;26.15;;
76127;SDS011;64873;50.102;14.434;2023-02-10T02:18:09;56.83;;;26.25;;
76127;SDS011;64873;50.102;14.434;2023-02-10T02:23:20;59.28;;;26.02;;
76127;SDS011;64873;50.102;14.434;2023-02-10T02:36:59;57.13;;;26.48;;
76127;SDS011;64873;50.102;14.434;2023-02-10T02:39:29;59.95;;;25.90;;
76127;SDS011;64873;50.102;14.434;2023-02-10T02:44:29;61.80;;;25.60;;
76127;SDS011;64873;50.102;14.434;2023-02-10T02:47:07;55.85;;;25.70;;
76127;SDS011;64873;50.102;14.434;2023-02-10T03:00:57;53.90;;;23.15;;
76127;SDS011;64873;50.102;14.434;2023-02-10T03:03:30;55.33;;;25.05;;
76127;SDS011;64873;50.102;14.434;2023-02-10T03:06:00;54.78;;;24.17;;
76127;SDS011;64873;50.102;14.434;2023-02-10T03:08:26;59.50;;;25.50;;
76127;SDS011;64873;50.102;14.434;2023-02-10T03:10:53;53.33;;;24.77;;
76127;SDS011;64873;50.102;14.434;2023-02-10T03:13:18;54.15;;;24.52;;
76127;SDS011;64873;50.102;14.434;2023-02-10T03:15:44;54.65;;;24.23;;
76127;SDS011;64873;50.102;14.434;2023-02-10T03:18:09;53.10;;;24.50;;
76127;SDS011;64873;50.102;14.434;2023-02-10T03:20:34;55.30;;;24.42;;
76127;SDS011;64873;50.102;14.434;2023-02-10T03:23:00;53.22;;;24.05;;
76127;SDS011;64873;50.102;14.434;2023-02-10T03:25:25;55.70;;;23.75;;
76127;SDS011;64873;50.102;14.434;2023-02-10T03:27:51;56.53;;;24.90;;
76127;SDS011;64873;50.102;14.434;2023-02-10T03:30:16;53.85;;;24.10;;
76127;SDS011;64873;50.102;14.434;2023-02-10T03:32:41;53.80;;;24.52;;
76127;SDS011;64873;50.102;14.434;2023-02-10T03:35:07;55.17;;;24.73;;
76127;SDS011;64873;50.102;14.434;2023-02-10T03:37:32;57.15;;;25.02;;
76127;SDS011;64873;50.102;14.434;2023-02-10T03:39:58;54.10;;;24.38;;
76127;SDS011;64873;50.102;14.434;2023-02-10T03:42:23;55.92;;;25.77;;
76127;SDS011;64873;50.102;14.434;2023-02-10T03:44:49;55.72;;;25.15;;
76127;SDS011;64873;50.102;14.434;2023-02-10T03:47:14;55.70;;;23.70;;
76127;SDS011;64873;50.102;14.434;2023-02-10T03:49:39;57.58;;;25.92;;
76127;SDS011;64873;50.102;14.434;2023-02-10T03:52:05;63.63;;;24.63;;
76127;SDS011;64873;50.102;14.434;2023-02-10T03:54:30;54.75;;;25.20;;
76127;SDS011;64873;50.102;14.434;2023-02-10T03:56:56;52.95;;;24.73;;
76127;SDS011;64873;50.102;14.434;2023-02-10T03:59:21;51.40;;;24.42;;
76127;SDS011;64873;50.102;14.434;2023-02-10T04:01:47;56.40;;;25.45;;
76127;SDS011;64873;50.102;14.434;2023-02-10T04:04:13;59.60;;;26.45;;
76127;SDS011;64873;50.102;14.434;2023-02-10T04:06:38;60.30;;;25.42;;
76127;SDS011;64873;50.102;14.434;2023-02-10T04:09:03;62.67;;;25.92;;
76127;SDS011;64873;50.102;14.434;2023-02-10T04:11:29;55.97;;;25.08;;
76127;SDS011;64873;50.102;14.434;2023-02-10T04:13:54;51.53;;;24.23;;
76127;SDS011;64873;50.102;14.434;2023-02-10T04:16:20;61.80;;;25.67;;
76127;SDS011;64873;50.102;14.434;2023-02-10T04:18:48;58.40;;;25.52;;
76127;SDS011;64873;50.102;14.434;2023-02-10T04:21:14;59.40;;;25.75;;
76127;SDS011;64873;50.102;14.434;2023-02-10T04:23:39;52.78;;;24.23;;
76127;SDS011;64873;50.102;14.434;2023-02-10T04:26:05;51.50;;;24.95;;
76127;SDS011;64873;50.102;14.434;2023-02-10T04:28:31;59.15;;;25.25;;
76127;SDS011;64873;50.102;14.434;2023-02-10T04:30:57;63.35;;;27.88;;
76127;SDS011;64873;50.102;14.434;2023-02-10T04:33:24;58.45;;;26.55;;
76127;SDS011;64873;50.102;14.434;2023-02-10T04:35:50;56.53;;;24.42;;
76127;SDS011;64873;50.102;14.434;2023-02-10T04:38:16;60.70;;;26.98;;
76127;SDS011;64873;50.102;14.434;2023-02-10T04:40:42;58.92;;;27.88;;
76127;SDS011;64873;50.102;14.434;2023-02-10T04:43:08;52.38;;;23.70;;
76127;SDS011;64873;50.102;14.434;2023-02-10T04:45:35;55.30;;;26.27;;
76127;SDS011;64873;50.102;14.434;2023-02-10T04:48:00;55.20;;;25.38;;
76127;SDS011;64873;50.102;14.434;2023-02-10T04:50:26;59.47;;;23.98;;
76127;SDS011;64873;50.102;14.434;2023-02-10T04:52:51;56.45;;;26.13;;
76127;SDS011;64873;50.102;14.434;2023-02-10T04:55:16;61.45;;;26.40;;
76127;SDS011;64873;50.102;14.434;2023-02-10T04:57:42;56.90;;;25.05;;
76127;SDS011;64873;50.102;14.434;2023-02-10T05:00:08;54.03;;;23.50;;
76127;SDS011;64873;50.102;14.434;2023-02-10T05:02:33;53.75;;;24.08;;
76127;SDS011;64873;50.102;14.434;2023-02-10T05:04:59;52.13;;;23.15;;
76127;SDS011;64873;50.102;14.434;2023-02-10T05:07:24;54.78;;;23.88;;
76127;SDS011;64873;50.102;14.434;2023-02-10T05:09:50;50.03;;;21.55;;
76127;SDS011;64873;50.102;14.434;2023-02-10T05:12:15;52.42;;;23.58;;
76127;SDS011;64873;50.102;14.434;2023-02-10T05:14:41;54.63;;;23.65;;
76127;SDS011;64873;50.102;14.434;2023-02-10T05:17:06;50.40;;;24.83;;
76127;SDS011;64873;50.102;14.434;2023-02-10T05:19:32;55.53;;;23.90;;
76127;SDS011;64873;50.102;14.434;2023-02-10T05:21:58;47.05;;;23.65;;
76127;SDS011;64873;50.102;14.434;2023-02-10T05:24:23;56.42;;;24.52;;
76127;SDS011;64873;50.102;14.434;2023-02-10T05:26:49;49.75;;;23.88;;
76127;SDS011;64873;50.102;14.434;2023-02-10T05:29:15;54.17;;;23.75;;
76127;SDS011;64873;50.102;14.434;2023-02-10T05:31:41;56.60;;;23.80;;
76127;SDS011;64873;50.102;14.434;2023-02-10T05:34:06;60.92;;;25.95;;
76127;SDS011;64873;50.102;14.434;2023-02-10T05:36:32;52.10;;;24.52;;
76127;SDS011;64873;50.102;14.434;2023-02-10T05:38:57;51.92;;;24.20;;
76127;SDS011;64873;50.102;14.434;2023-02-10T05:41:41;46.00;;;22.92;;
76127;SDS011;64873;50.102;14.434;2023-02-10T05:44:07;51.50;;;23.63;;
76127;SDS011;64873;50.102;14.434;2023-02-10T05:46:32;49.75;;;22.35;;
76127;SDS011;64873;50.102;14.434;2023-02-10T05:48:57;52.67;;;24.90;;
76127;SDS011;64873;50.102;14.434;2023-02-10T05:51:23;47.05;;;20.27;;
76127;SDS011;64873;50.102;14.434;2023-02-10T05:53:48;47.25;;;22.75;;
76127;SDS011;64873;50.102;14.434;2023-02-10T05:56:14;53.55;;;24.38;;
76127;SDS011;64873;50.102;14.434;2023-02-10T05:58:39;46.38;;;21.58;;
76127;SDS011;64873;50.102;14.434;2023-02-10T06:01:08;47.40;;;22.55;;
76127;SDS011;64873;50.102;14.434;2023-02-10T06:03:35;50.15;;;23.13;;
76127;SDS011;64873;50.102;14.434;2023-02-10T06:06:00;53.22;;;24.33;;
76127;SDS011;64873;50.102;14.434;2023-02-10T06:08:26;50.80;;;22.80;;
76127;SDS011;64873;50.102;14.434;2023-02-10T06:10:52;48.88;;;21.85;;
76127;SDS011;64873;50.102;14.434;2023-02-10T06:13:18;48.92;;;22.55;;
76127;SDS011;64873;50.102;14.434;2023-02-10T06:15:43;50.30;;;23.52;;
76127;SDS011;64873;50.102;14.434;2023-02-10T06:18:09;48.83;;;22.27;;
76127;SDS011;64873;50.102;14.434;2023-02-10T06:20:34;47.75;;;21.73;;
76127;SDS011;64873;50.102;14.434;2023-02-10T06:23:00;49.08;;;21.65;;
76127;SDS011;64873;50.102;14.434;2023-02-10T06:25:25;52.55;;;23.58;;
76127;SDS011;64873;50.102;14.434;2023-02-10T06:27:51;47.33;;;22.55;;
76127;SDS011;64873;50.102;14.434;2023-02-10T06:30:16;52.00;;;23.15;;
76127;SDS011;64873;50.102;14.434;2023-02-10T06:32:41;46.60;;;21.55;;
76127;SDS011;64873;50.102;14.434;2023-02-10T06:35:07;49.97;;;23.00;;
76127;SDS011;64873;50.102;14.434;2023-02-10T06:37:32;44.60;;;21.45;;
76127;SDS011;64873;50.102;14.434;2023-02-10T06:39:58;46.53;;;22.05;;
76127;SDS011;64873;50.102;14.434;2023-02-10T06:42:24;48.33;;;23.58;;
76127;SDS011;64873;50.102;14.434;2023-02-10T06:44:49;46.55;;;22.17;;
76127;SDS011;64873;50.102;14.434;2023-02-10T06:47:15;47.15;;;19.95;;
76127;SDS011;64873;50.102;14.434;2023-02-10T06:49:40;42.85;;;20.85;;
76127;SDS011;64873;50.102;14.434;2023-02-10T06:52:05;50.90;;;21.02;;
76127;SDS011;64873;50.102;14.434;2023-02-10T06:54:31;47.13;;;20.92;;
76127;SDS011;64873;50.102;14.434;2023-02-10T06:56:56;50.78;;;22.75;;
76127;SDS011;64873;50.102;14.434;2023-02-10T06:59:22;46.58;;;21.92;;
76127;SDS011;64873;50.102;14.434;2023-02-10T07:01:47;43.17;;;20.98;;
76127;SDS011;64873;50.102;14.434;2023-02-10T07:04:13;46.58;;;21.63;;
76127;SDS011;64873;50.102;14.434;2023-02-10T07:06:38;49.45;;;21.85;;
76127;SDS011;64873;50.102;14.434;2023-02-10T07:09:04;46.30;;;22.15;;
76127;SDS011;64873;50.102;14.434;2023-02-10T07:11:31;47.53;;;21.83;;
76127;SDS011;64873;50.102;14.434;2023-02-10T07:13:57;48.15;;;21.00;;
76127;SDS011;64873;50.102;14.434;2023-02-10T07:16:22;46.20;;;20.83;;
76127;SDS011;64873;50.102;14.434;2023-02-10T07:18:48;46.65;;;23.83;;
76127;SDS011;64873;50.102;14.434;2023-02-10T07:21:13;45.50;;;21.98;;
76127;SDS011;64873;50.102;14.434;2023-02-10T07:23:39;49.40;;;21.50;;
76127;SDS011;64873;50.102;14.434;2023-02-10T07:26:05;45.35;;;21.23;;
76127;SDS011;64873;50.102;14.434;2023-02-10T07:28:30;43.95;;;21.13;;
76127;SDS011;64873;50.102;14.434;2023-02-10T07:30:56;42.78;;;21.65;;
76127;SDS011;64873;50.102;14.434;2023-02-10T07:33:21;45.75;;;20.55;;
76127;SDS011;64873;50.102;14.434;2023-02-10T07:35:47;51.08;;;22.27;;
76127;SDS011;64873;50.102;14.434;2023-02-10T07:38:12;52.08;;;25.05;;
76127;SDS011;64873;50.102;14.434;2023-02-10T07:40:38;46.22;;;23.13;;
76127;SDS011;64873;50.102;14.434;2023-02-10T07:43:03;56.20;;;24.60;;
76127;SDS011;64873;50.102;14.434;2023-02-10T07:45:28;61.15;;;25.80;;
76127;SDS011;64873;50.102;14.434;2023-02-10T07:47:56;62.78;;;26.00;;
76127;SDS011;64873;50.102;14.434;2023-02-10T07:50:23;50.05;;;24.35;;
76127;SDS011;64873;50.102;14.434;2023-02-10T07:52:49;55.83;;;23.65;;
76127;SDS011;64873;50.102;14.434;2023-02-10T07:55:15;58.90;;;23.50;;
76127;SDS011;64873;50.102;14.434;2023-02-10T07:57:40;56.83;;;25.20;;
76127;SDS011;64873;50.102;14.434;2023-02-10T08:00:07;50.28;;;22.55;;
76127;SDS011;64873;50.102;14.434;2023-02-10T08:02:33;51.50;;;23.83;;
76127;SDS011;64873;50.102;14.434;2023-02-10T08:04:59;54.95;;;23.30;;
76127;SDS011;64873;50.102;14.434;2023-02-10T08:07:25;52.17;;;23.25;;
76127;SDS011;64873;50.102;14.434;2023-02-10T08:09:50;51.83;;;23.00;;
76127;SDS011;64873;50.102;14.434;2023-02-10T08:12:15;53.85;;;22.35;;
76127;SDS011;64873;50.102;14.434;2023-02-10T08:14:41;43.67;;;22.38;;
76127;SDS011;64873;50.102;14.434;2023-02-10T08:17:06;47.65;;;20.90;;
76127;SDS011;64873;50.102;14.434;2023-02-10T08:19:32;45.03;;;21.80;;
76127;SDS011;64873;50.102;14.434;2023-02-10T08:21:58;50.35;;;23.20;;
76127;SDS011;64873;50.102;14.434;2023-02-10T08:24:24;45.80;;;21.50;;
76127;SDS011;64873;50.102;14.434;2023-02-10T08:26:49;55.20;;;22.73;;
76127;SDS011;64873;50.102;14.434;2023-02-10T08:29:15;45.38;;;21.85;;
76127;SDS011;64873;50.102;14.434;2023-02-10T08:31:40;51.97;;;23.42;;
76127;SDS011;64873;50.102;14.434;2023-02-10T08:34:10;39.05;;;19.88;;
76127;SDS011;64873;50.102;14.434;2023-02-10T08:36:39;49.38;;;22.25;;
76127;SDS011;64873;50.102;14.434;2023-02-10T08:39:05;44.47;;;20.42;;
76127;SDS011;64873;50.102;14.434;2023-02-10T08:41:31;45.83;;;20.33;;
76127;SDS011;64873;50.102;14.434;2023-02-10T08:43:57;51.42;;;21.48;;
76127;SDS011;64873;50.102;14.434;2023-02-10T08:46:22;47.90;;;20.42;;
76127;SDS011;64873;50.102;14.434;2023-02-10T08:48:48;48.95;;;20.85;;
76127;SDS011;64873;50.102;14.434;2023-02-10T08:51:14;35.22;;;18.35;;
76127;SDS011;64873;50.102;14.434;2023-02-10T08:53:41;41.80;;;19.83;;
76127;SDS011;64873;50.102;14.434;2023-02-10T08:56:08;42.13;;;20.13;;
76127;SDS011;64873;50.102;14.434;2023-02-10T08:58:35;40.88;;;19.10;;
76127;SDS011;64873;50.102;14.434;2023-02-10T09:01:00;40.08;;;20.20;;
76127;SDS011;64873;50.102;14.434;2023-02-10T09:03:27;41.10;;;19.83;;
76127;SDS011;64873;50.102;14.434;2023-02-10T09:05:53;36.72;;;18.70;;
76127;SDS011;64873;50.102;14.434;2023-02-10T09:08:19;43.00;;;18.50;;
76127;SDS011;64873;50.102;14.434;2023-02-10T09:10:45;44.45;;;19.08;;
76127;SDS011;64873;50.102;14.434;2023-02-10T09:13:11;43.53;;;20.10;;
76127;SDS011;64873;50.102;14.434;2023-02-10T09:15:37;36.28;;;18.83;;
76127;SDS011;64873;50.102;14.434;2023-02-10T09:18:04;43.03;;;19.90;;
76127;SDS011;64873;50.102;14.434;2023-02-10T09:20:30;44.33;;;19.23;;
76127;SDS011;64873;50.102;14.434;2023-02-10T09:22:56;46.03;;;20.45;;
76127;SDS011;64873;50.102;14.434;2023-02-10T09:25:21;45.13;;;20.98;;
76127;SDS011;64873;50.102;14.434;2023-02-10T09:27:47;37.42;;;19.23;;
76127;SDS011;64873;50.102;14.434;2023-02-10T09:30:13;41.40;;;21.17;;
76127;SDS011;64873;50.102;14.434;2023-02-10T09:32:38;38.95;;;20.23;;
76127;SDS011;64873;50.102;14.434;2023-02-10T09:35:04;45.78;;;21.48;;
76127;SDS011;64873;50.102;14.434;2023-02-10T09:37:30;45.88;;;20.42;;
76127;SDS011;64873;50.102;14.434;2023-02-10T09:39:55;36.08;;;19.13;;
76127;SDS011;64873;50.102;14.434;2023-02-10T09:45:02;50.65;;;21.75;;
76127;SDS011;64873;50.102;14.434;2023-02-10T09:52:51;45.30;;;21.92;;
76127;SDS011;64873;50.102;14.434;2023-02-10T09:55:39;48.67;;;22.58;;
76127;SDS011;64873;50.102;14.434;2023-02-10T09:58:10;45.22;;;22.60;;
76127;SDS011;64873;50.102;14.434;2023-02-10T10:00:43;49.67;;;22.38;;
76127;SDS011;64873;50.102;14.434;2023-02-10T10:03:12;42.83;;;21.50;;
76127;SDS011;64873;50.102;14.434;2023-02-10T10:05:48;44.40;;;20.23;;
76127;SDS011;64873;50.102;14.434;2023-02-10T10:08:24;46.08;;;21.80;;
76127;SDS011;64873;50.102;14.434;2023-02-10T10:11:00;40.40;;;20.63;;
76127;SDS011;64873;50.102;14.434;2023-02-10T10:13:29;43.15;;;21.23;;
76127;SDS011;64873;50.102;14.434;2023-02-10T10:18:50;43.33;;;21.58;;
76127;SDS011;64873;50.102;14.434;2023-02-10T10:21:39;50.90;;;21.70;;
76127;SDS011;64873;50.102;14.434;2023-02-10T10:27:25;49.45;;;21.15;;
76127;SDS011;64873;50.102;14.434;2023-02-10T10:30:06;44.03;;;22.08;;
76127;SDS011;64873;50.102;14.434;2023-02-10T10:32:46;45.95;;;21.65;;
76127;SDS011;64873;50.102;14.434;2023-02-10T10:35:18;44.05;;;21.73;;
76127;SDS011;64873;50.102;14.434;2023-02-10T10:37:50;47.03;;;23.33;;
76127;SDS011;64873;50.102;14.434;2023-02-10T10:40:17;40.58;;;20.25;;
76127;SDS011;64873;50.102;14.434;2023-02-10T10:42:48;44.20;;;20.98;;
76127;SDS011;64873;50.102;14.434;2023-02-10T10:45:19;42.47;;;20.95;;
76127;SDS011;64873;50.102;14.434;2023-02-10T10:50:21;41.13;;;20.38;;
76127;SDS011;64873;50.102;14.434;2023-02-10T10:52:49;37.75;;;19.77;;
76127;SDS011;64873;50.102;14.434;2023-02-10T10:55:37;39.55;;;20.60;;
76127;SDS011;64873;50.102;14.434;2023-02-10T11:01:09;38.58;;;19.70;;
76127;SDS011;64873;50.102;14.434;2023-02-10T11:03:36;38.35;;;19.70;;
76127;SDS011;64873;50.102;14.434;2023-02-10T11:06:04;37.72;;;19.02;;
76127;SDS011;64873;50.102;14.434;2023-02-10T11:08:35;42.50;;;20.02;;
76127;SDS011;64873;50.102;14.434;2023-02-10T11:11:07;43.38;;;20.88;;
76127;SDS011;64873;50.102;14.434;2023-02-10T11:13:37;46.30;;;20.63;;
76127;SDS011;64873;50.102;14.434;2023-02-10T11:16:06;39.15;;;20.30;;
76127;SDS011;64873;50.102;14.434;2023-02-10T11:18:35;38.72;;;19.00;;
76127;SDS011;64873;50.102;14.434;2023-02-10T11:21:03;37.50;;;19.95;;
76127;SDS011;64873;50.102;14.434;2023-02-10T11:23:49;40.03;;;19.50;;
76127;SDS011;64873;50.102;14.434;2023-02-10T11:26:18;40.70;;;20.33;;
76127;SDS011;64873;50.102;14.434;2023-02-10T11:28:45;36.35;;;18.77;;
76127;SDS011;64873;50.102;14.434;2023-02-10T11:31:22;40.92;;;20.48;;
76127;SDS011;64873;50.102;14.434;2023-02-10T11:33:55;42.90;;;20.42;;
76127;SDS011;64873;50.102;14.434;2023-02-10T11:36:30;39.90;;;21.30;;
76127;SDS011;64873;50.102;14.434;2023-02-10T11:39:02;40.15;;;20.42;;
76127;SDS011;64873;50.102;14.434;2023-02-10T11:41:30;41.95;;;20.13;;
76127;SDS011;64873;50.102;14.434;2023-02-10T11:43:57;39.83;;;20.17;;
76127;SDS011;64873;50.102;14.434;2023-02-10T11:46:26;40.47;;;19.95;;
76127;SDS011;64873;50.102;14.434;2023-02-10T11:49:00;39.78;;;20.77;;
76127;SDS011;64873;50.102;14.434;2023-02-10T11:51:30;39.47;;;21.05;;
76127;SDS011;64873;50.102;14.434;2023-02-10T11:53:57;43.47;;;20.55;;
76127;SDS011;64873;50.102;14.434;2023-02-10T11:56:36;39.65;;;19.27;;
76127;SDS011;64873;50.102;14.434;2023-02-10T12:02:24;37.58;;;20.92;;
76127;SDS011;64873;50.102;14.434;2023-02-10T12:07:31;41.33;;;19.90;;
76127;SDS011;64873;50.102;14.434;2023-02-10T12:10:15;53.75;;;22.70;;
76127;SDS011;64873;50.102;14.434;2023-02-10T12:15:56;43.08;;;20.42;;
76127;SDS011;64873;50.102;14.434;2023-02-10T12:18:47;41.08;;;20.35;;
76127;SDS011;64873;50.102;14.434;2023-02-10T12:27:11;39.45;;;19.95;;
76127;SDS011;64873;50.102;14.434;2023-02-10T12:43:31;40.97;;;18.85;;
76127;SDS011;64873;50.102;14.434;2023-02-10T12:46:27;44.22;;;21.17;;
76127;SDS011;64873;50.102;14.434;2023-02-10T12:49:05;46.95;;;22.58;;
76127;SDS011;64873;50.102;14.434;2023-02-10T12:51:54;45.70;;;22.65;;
76127;SDS011;64873;50.102;14.434;2023-02-10T12:54:40;46.50;;;22.10;;
76127;SDS011;64873;50.102;14.434;2023-02-10T12:57:18;46.80;;;20.88;;
76127;SDS011;64873;50.102;14.434;2023-02-10T12:59:49;44.30;;;21.75;;
76127;SDS011;64873;50.102;14.434;2023-02-10T13:02:50;43.58;;;21.30;;
76127;SDS011;64873;50.102;14.434;2023-02-10T13:05:33;43.60;;;22.05;;
76127;SDS011;64873;50.102;14.434;2023-02-10T13:08:05;48.83;;;23.25;;
76127;SDS011;64873;50.102;14.434;2023-02-10T13:10:40;42.17;;;22.15;;
76127;SDS011;64873;50.102;14.434;2023-02-10T13:13:12;41.00;;;20.95;;
76127;SDS011;64873;50.102;14.434;2023-02-10T13:15:41;44.08;;;21.05;;
76127;SDS011;64873;50.102;14.434;2023-02-10T13:18:22;41.63;;;21.65;;
76127;SDS011;64873;50.102;14.434;2023-02-10T13:24:06;45.17;;;22.85;;
76127;SDS011;64873;50.102;14.434;2023-02-10T13:31:56;44.23;;;22.43;;
76127;SDS011;64873;50.102;14.434;2023-02-10T13:34:35;45.88;;;21.08;;
76127;SDS011;64873;50.102;14.434;2023-02-10T13:37:20;37.88;;;20.63;;
76127;SDS011;64873;50.102;14.434;2023-02-10T13:40:03;45.00;;;22.70;;
76127;SDS011;64873;50.102;14.434;2023-02-10T13:42:38;42.45;;;21.15;;
76127;SDS011;64873;50.102;14.434;2023-02-10T13:47:37;38.92;;;20.35;;
76127;SDS011;64873;50.102;14.434;2023-02-10T13:57:58;40.65;;;21.13;;
76127;SDS011;64873;50.102;14.434;2023-02-10T14:00:48;41.33;;;19.02;;
76127;SDS011;64873;50.102;14.434;2023-02-10T14:08:28;35.70;;;19.15;;
76127;SDS011;64873;50.102;14.434;2023-02-10T14:11:01;39.72;;;20.23;;
76127;SDS011;64873;50.102;14.434;2023-02-10T14:13:39;37.13;;;17.75;;
76127;SDS011;64873;50.102;14.434;2023-02-10T14:16:27;44.45;;;20.48;;
76127;SDS011;64873;50.102;14.434;2023-02-10T14:19:00;42.15;;;19.25;;
76127;SDS011;64873;50.102;14.434;2023-02-10T14:21:40;36.55;;;18.80;;
76127;SDS011;64873;50.102;14.434;2023-02-10T14:24:17;47.65;;;21.42;;
76127;SDS011;64873;50.102;14.434;2023-02-10T14:26:47;37.90;;;19.83;;
76127;SDS011;64873;50.102;14.434;2023-02-10T14:29:16;41.40;;;19.45;;
76127;SDS011;64873;50.102;14.434;2023-02-10T14:31:44;40.35;;;20.05;;
76127;SDS011;64873;50.102;14.434;2023-02-10T14:34:17;37.85;;;19.65;;
76127;SDS011;64873;50.102;14.434;2023-02-10T14:36:52;41.33;;;19.38;;
76127;SDS011;64873;50.102;14.434;2023-02-10T14:39:22;39.90;;;18.98;;
76127;SDS011;64873;50.102;14.434;2023-02-10T14:41:50;36.92;;;17.15;;
76127;SDS011;64873;50.102;14.434;2023-02-10T14:44:37;38.15;;;18.55;;
76127;SDS011;64873;50.102;14.434;2023-02-10T14:47:55;38.55;;;17.60;;
76127;SDS011;64873;50.102;14.434;2023-02-10T14:50:03;37.60;;;18.50;;
76127;SDS011;64873;50.102;14.434;2023-02-10T14:52:31;39.35;;;16.85;;
76127;SDS011;64873;50.102;14.434;2023-02-10T14:55:02;33.35;;;17.35;;
76127;SDS011;64873;50.102;14.434;2023-02-10T14:57:46;32.72;;;15.75;;
76127;SDS011;64873;50.102;14.434;2023-02-10T15:00:12;29.15;;;15.05;;
76127;SDS011;64873;50.102;14.434;2023-02-10T15:02:38;34.50;;;18.30;;
76127;SDS011;64873;50.102;14.434;2023-02-10T15:05:06;32.05;;;16.55;;
76127;SDS011;64873;50.102;14.434;2023-02-10T15:07:36;30.80;;;16.02;;
76127;SDS011;64873;50.102;14.434;2023-02-10T15:13:00;37.50;;;16.73;;
76127;SDS011;64873;50.102;14.434;2023-02-10T15:15:31;28.83;;;15.50;;
76127;SDS011;64873;50.102;14.434;2023-02-10T15:20:56;34.25;;;16.95;;
76127;SDS011;64873;50.102;14.434;2023-02-10T15:23:23;41.35;;;16.90;;
76127;SDS011;64873;50.102;14.434;2023-02-10T15:26:06;33.45;;;16.58;;
76127;SDS011;64873;50.102;14.434;2023-02-10T15:28:42;31.13;;;16.63;;
76127;SDS011;64873;50.102;14.434;2023-02-10T15:33:55;32.45;;;17.02;;
76127;SDS011;64873;50.102;14.434;2023-02-10T15:46:47;41.83;;;17.85;;
76127;SDS011;64873;50.102;14.434;2023-02-10T15:49:16;37.78;;;17.45;;
76127;SDS011;64873;50.102;14.434;2023-02-10T15:51:47;32.92;;;16.42;;
76127;SDS011;64873;50.102;14.434;2023-02-10T15:54:19;35.45;;;17.05;;
76127;SDS011;64873;50.102;14.434;2023-02-10T15:56:56;37.90;;;17.50;;
76127;SDS011;64873;50.102;14.434;2023-02-10T15:59:23;34.33;;;17.48;;
76127;SDS011;64873;50.102;14.434;2023-02-10T16:01:56;32.90;;;16.70;;
76127;SDS011;64873;50.102;14.434;2023-02-10T16:04:23;44.45;;;18.17;;
76127;SDS011;64873;50.102;14.434;2023-02-10T16:06:49;38.72;;;17.73;;
76127;SDS011;64873;50.102;14.434;2023-02-10T16:09:15;37.35;;;17.45;;
76127;SDS011;64873;50.102;14.434;2023-02-10T16:11:41;39.60;;;18.13;;
76127;SDS011;64873;50.102;14.434;2023-02-10T16:14:07;35.42;;;18.13;;
76127;SDS011;64873;50.102;14.434;2023-02-10T16:16:32;35.50;;;17.55;;
76127;SDS011;64873;50.102;14.434;2023-02-10T16:19:00;39.63;;;19.10;;
76127;SDS011;64873;50.102;14.434;2023-02-10T16:21:26;35.72;;;17.92;;
76127;SDS011;64873;50.102;14.434;2023-02-10T16:23:51;35.60;;;18.15;;